createdAt,value
2023-11-12T00:05:05.024Z,4.33
2023-11-12T00:35:07.413Z,4.91
2023-11-12T01:05:09.013Z,5.00
2023-11-12T01:35:10.755Z,5.02
2023-11-12T02:05:12.487Z,5.16
2023-11-12T02:35:14.200Z,5.72
2023-11-12T03:05:15.766Z,5.62
2023-11-12T03:35:17.500Z,6.05
2023-11-12T04:05:21.779Z,7.05
2023-11-12T04:35:23.293Z,7.16
2023-11-12T05:05:24.863Z,5.11
2023-11-12T05:35:26.368Z,5.51
2023-11-12T06:05:27.812Z,6.52
2023-11-12T06:35:30.346Z,7.49
2023-11-12T07:05:32.003Z,8.08
2023-11-12T07:35:34.651Z,9.90
2023-11-12T08:05:35.997Z,11.61
2023-11-12T08:35:37.934Z,9.26
2023-11-12T09:05:39.941Z,7.57
2023-11-12T09:35:42.008Z,5.00
2023-11-12T10:05:43.964Z,5.80
2023-11-12T10:35:50.450Z,5.53
2023-11-12T11:05:52.211Z,5.84
2023-11-12T11:35:53.902Z,5.15
2023-11-12T12:05:55.697Z,4.09
2023-11-12T12:35:57.385Z,4.04
2023-11-12T13:05:59.408Z,3.80
2023-11-12T13:36:01.479Z,4.04
2023-11-12T14:06:03.234Z,7.35
2023-11-12T14:36:07.968Z,3.24
2023-11-12T15:06:09.923Z,3.70
2023-11-12T15:36:12.078Z,4.18
2023-11-12T16:06:13.930Z,5.75
2023-11-12T16:36:15.809Z,12.03
2023-11-12T17:06:17.761Z,6.51
2023-11-12T17:36:19.569Z,13.16
2023-11-12T18:06:20.841Z,12.96
2023-11-12T18:36:25.449Z,36.62
2023-11-12T19:24:57.015Z,26.20
2023-11-12T19:54:58.487Z,23.09
2023-11-12T20:25:01.039Z,23.73
2023-11-12T20:55:02.466Z,21.57
2023-11-12T21:55:19.548Z,43.95
2023-11-12T22:25:21.146Z,30.26
2023-11-12T22:55:23.588Z,27.19
2023-11-12T23:25:25.079Z,21.64
2023-11-12T23:55:28.860Z,20.08
